Time;durP1;ratioP1;P1;durP2;ratioP2;P2;SDS_P1;SDS_P2;PMS_P1;PMS_P2;Temp;Humidity;BMP_temperature;BMP_pressure;BME280_temperature;BME280_humidity;BME280_pressure;Samples;Min_cycle;Max_cycle;Signal;HPM_P1;HPM_P2
2021/07/11 00:05:06;;;;;;;1999.90;999.90;;;;;;;19.54;75.13;101212.91;15784570;28;20090;-64
2021/07/11 00:12:40;;;;;;;1999.90;999.90;;;;;;;19.44;75.50;101205.88;15764438;28;20083;-60
2021/07/11 00:20:14;;;;;;;1999.90;999.90;;;;;;;19.41;75.38;101198.16;15761751;28;20569;-62
2021/07/11 00:27:49;;;;;;;1999.90;999.90;;;;;;;19.34;75.21;101195.22;15780446;28;20072;-61
2021/07/11 00:35:22;;;;;;;1999.90;999.90;;;;;;;19.26;75.58;101210.44;15782532;28;20072;-61
2021/07/11 00:42:56;;;;;;;1999.90;999.90;;;;;;;19.24;75.53;101202.34;15778139;28;20040;-59
2021/07/11 00:50:31;;;;;;;1999.90;999.90;;;;;;;19.16;75.63;101202.63;15744674;28;20135;-61
2021/07/11 00:58:43;;;;;;;1999.90;999.90;;;;;;;19.13;75.83;101206.22;15759386;28;20055;-59
2021/07/11 01:06:29;;;;;;;1999.90;999.90;;;;;;;19.13;75.51;101200.56;15721754;28;20481;-58
2021/07/11 01:14:42;;;;;;;1999.90;999.90;;;;;;;19.06;76.00;101195.59;15779953;28;20052;-59
2021/07/11 01:22:20;;;;;;;1999.90;999.90;;;;;;;18.88;76.51;101186.84;15735633;28;20562;-61
2021/07/11 01:30:09;;;;;;;1999.90;999.90;;;;;;;18.94;75.83;101188.13;15761871;28;20036;-61
2021/07/11 01:37:50;;;;;;;1999.90;999.90;;;;;;;18.88;75.56;101198.16;15767967;28;20146;-57
2021/07/11 01:45:33;;;;;;;1999.90;999.90;;;;;;;18.85;75.94;101190.41;15758305;28;20041;-62
2021/07/11 01:53:12;;;;;;;1999.90;999.90;;;;;;;18.76;75.70;101206.81;15776830;28;20060;-57
2021/07/11 02:00:46;;;;;;;1999.90;999.90;;;;;;;18.76;75.57;101195.50;15741412;28;20063;-58
2021/07/11 02:08:19;;;;;;;1999.90;999.90;;;;;;;18.69;75.40;101195.38;15737759;28;20439;-60
2021/07/11 02:16:01;;;;;;;1999.90;999.90;;;;;;;18.65;75.70;101202.97;15740015;28;20041;-58
2021/07/11 02:23:36;;;;;;;1999.90;999.90;;;;;;;18.56;76.38;101202.38;15778492;28;20044;-59
2021/07/11 02:31:16;;;;;;;1999.90;999.90;;;;;;;18.52;76.11;101204.31;15739240;28;20517;-58
2021/07/11 02:38:52;;;;;;;1999.90;999.90;;;;;;;18.48;76.05;101198.59;15747167;28;20314;-60
2021/07/11 02:46:35;;;;;;;1999.90;999.90;;;;;;;18.40;76.29;101194.00;15768188;28;20044;-58
2021/07/11 02:54:14;;;;;;;1999.90;999.90;;;;;;;18.38;76.19;101205.69;15728214;28;20040;-59
2021/07/11 03:01:49;;;;;;;1999.90;999.90;;;;;;;18.27;76.08;101192.53;15787084;28;20085;-61
2021/07/11 03:09:26;;;;;;;1999.90;999.90;;;;;;;18.29;76.78;101190.97;15749653;28;20469;-64
2021/07/11 03:17:02;;;;;;;1999.90;999.90;;;;;;;18.33;76.02;101196.69;15771116;28;20140;-58
2021/07/11 03:24:37;;;;;;;1999.90;999.90;;;;;;;18.28;76.16;101197.00;15766978;28;20206;-59
2021/07/11 03:32:15;;;;;;;1999.90;999.90;;;;;;;18.26;76.46;101207.88;15729702;28;20101;-60
2021/07/11 03:39:49;;;;;;;1999.90;999.90;;;;;;;18.31;76.77;101205.53;15805887;28;20044;-60
2021/07/11 03:47:37;;;;;;;1999.90;999.90;;;;;;;18.21;77.01;101206.16;15762009;28;20530;-59
2021/07/11 03:55:11;;;;;;;1999.90;999.90;;;;;;;18.20;77.90;101206.53;15764241;28;20044;-58
2021/07/11 04:02:48;;;;;;;1999.90;999.90;;;;;;;18.51;76.85;101205.50;15784141;28;20143;-60
2021/07/11 04:10:23;;;;;;;1999.90;999.90;;;;;;;18.65;76.45;101208.63;15747697;28;20047;-57
2021/07/11 04:18:02;;;;;;;1999.90;999.90;;;;;;;18.57;76.68;101220.97;15743306;28;20060;-62
2021/07/11 04:25:38;;;;;;;1999.90;999.90;;;;;;;18.79;76.04;101217.38;15762455;28;20044;-58
2021/07/11 04:33:13;;;;;;;1999.90;999.90;;;;;;;19.02;75.35;101223.00;15747708;28;20132;-61
2021/07/11 04:40:45;;;;;;;1999.90;999.90;;;;;;;19.06;75.87;101228.72;15782514;28;20533;-61
2021/07/11 04:48:19;;;;;;;1999.90;999.90;;;;;;;19.15;74.82;101243.41;15725038;28;20473;-58
2021/07/11 04:55:54;;;;;;;1999.90;999.90;;;;;;;19.20;74.72;101241.09;15757064;22;20072;-59
2021/07/11 05:03:28;;;;;;;1999.90;999.90;;;;;;;19.46;74.66;101243.09;15745113;28;20044;-59
2021/07/11 05:11:00;;;;;;;1999.90;999.90;;;;;;;19.59;73.36;101243.72;15804561;28;20408;-58
2021/07/11 05:18:33;;;;;;;1999.90;999.90;;;;;;;20.29;72.43;101236.56;15785791;28;20032;-58
2021/07/11 05:26:06;;;;;;;1999.90;999.90;;;;;;;20.48;71.71;101236.41;15769459;28;20067;-57
2021/07/11 05:33:39;;;;;;;1999.90;999.90;;;;;;;20.45;71.01;101234.38;15809153;28;20504;-59
2021/07/11 05:41:12;;;;;;;1999.90;999.90;;;;;;;20.48;71.31;101247.75;15785524;28;20048;-58
2021/07/11 05:48:45;;;;;;;1999.90;999.90;;;;;;;21.04;69.85;101249.50;15802322;28;20165;-56
2021/07/11 05:56:17;;;;;;;1999.90;999.90;;;;;;;21.40;69.12;101252.69;15847937;28;20044;-58
2021/07/11 06:03:51;;;;;;;1999.90;999.90;;;;;;;21.79;66.67;101248.09;15847278;28;20043;-60
2021/07/11 06:11:23;;;;;;;1999.90;999.90;;;;;;;22.21;65.94;101243.03;15837252;28;20147;-57
2021/07/11 06:18:56;;;;;;;1999.90;999.90;;;;;;;22.43;64.40;101247.59;15860021;28;20123;-58
2021/07/11 06:26:30;;;;;;;1999.90;999.90;;;;;;;22.41;64.79;101245.16;15859593;28;20126;-58
2021/07/11 06:34:04;;;;;;;1999.90;999.90;;;;;;;23.06;63.00;101248.13;15859060;28;20056;-55
2021/07/11 06:41:36;;;;;;;1999.90;999.90;;;;;;;23.68;61.56;101245.66;15858990;28;20289;-58
2021/07/11 06:49:09;;;;;;;1999.90;999.90;;;;;;;24.35;59.18;101243.81;15858677;28;20035;-58
2021/07/11 06:56:42;;;;;;;1999.90;999.90;;;;;;;24.98;59.59;101234.03;15834305;28;20043;-60
2021/07/11 07:04:15;;;;;;;1999.90;999.90;;;;;;;25.29;53.93;101240.72;15858947;28;20411;-61
2021/07/11 07:11:47;;;;;;;1999.90;999.90;;;;;;;26.65;54.79;101244.91;15875549;28;20086;-57
2021/07/11 07:19:22;;;;;;;1999.90;999.90;;;;;;;27.08;48.34;101250.00;15839619;28;20048;-60
2021/07/11 07:26:54;;;;;;;1999.90;999.90;;;;;;;26.98;47.31;101261.16;15856199;28;20046;-55
2021/07/11 07:34:27;;;;;;;1999.90;999.90;;;;;;;27.19;46.40;101265.75;15874074;28;20389;-58
2021/07/11 07:42:00;;;;;;;1999.90;999.90;;;;;;;27.77;44.77;101266.41;15873294;28;20073;-59
2021/07/11 07:49:33;;;;;;;1999.90;999.90;;;;;;;27.69;43.87;101258.38;15872811;28;20058;-58
2021/07/11 07:57:05;;;;;;;1999.90;999.90;;;;;;;28.58;44.13;101265.97;15853467;28;20031;-58
2021/07/11 08:04:39;;;;;;;1999.90;999.90;;;;;;;28.51;43.34;101271.88;15871734;28;20079;-58
2021/07/11 08:12:11;;;;;;;1999.90;999.90;;;;;;;28.20;42.93;101256.94;15871286;28;20484;-59
2021/07/11 08:19:44;;;;;;;;;;;;;;;28.30;41.73;101255.13;15852998;28;20484;-58
2021/07/11 08:27:17;;;;;;;1999.90;999.90;;;;;;;28.94;41.37;101262.28;15852169;28;19919;-58
2021/07/11 08:34:51;;;;;;;1999.90;999.90;;;;;;;28.56;43.09;101261.94;15868697;28;20135;-63
2021/07/11 08:42:24;;;;;;;1999.90;999.90;;;;;;;29.14;40.78;101262.22;15851671;28;20067;-58
2021/07/11 08:49:58;;;;;;;1999.90;999.90;;;;;;;29.53;40.24;101259.19;15851343;28;20052;-60
2021/07/11 08:57:30;;;;;;;1999.90;999.90;;;;;;;30.00;38.57;101252.94;15868103;28;20498;-58
2021/07/11 09:05:06;;;;;;;1999.90;999.90;;;;;;;29.81;38.04;101263.38;15836670;28;20119;-58
2021/07/11 09:12:38;;;;;;;1999.90;999.90;;;;;;;29.23;38.14;101265.28;15816263;28;20082;-57
2021/07/11 09:20:12;;;;;;;1999.90;999.90;;;;;;;30.26;37.18;101253.06;15862028;28;20048;-59
2021/07/11 09:27:44;;;;;;;1999.90;999.90;;;;;;;30.15;36.97;101250.50;15836791;28;20035;-59
2021/07/11 09:35:21;;;;;;;1999.90;999.90;;;;;;;30.41;35.53;101248.47;15852044;28;20074;-60
2021/07/11 09:42:55;;;;;;;1999.90;999.90;;;;;;;30.25;36.35;101254.34;15864345;28;20043;-58
2021/07/11 09:50:29;;;;;;;1999.90;999.90;;;;;;;30.34;36.87;101266.00;15847620;28;20114;-57
2021/07/11 09:58:03;;;;;;;1999.90;999.90;;;;;;;30.70;35.22;101254.19;15865299;28;20040;-59
2021/07/11 10:05:43;;;;;;;1999.90;999.90;;;;;;;30.56;34.16;101243.91;15841891;28;20131;-57
2021/07/11 10:13:16;;;;;;;1999.90;999.90;;;;;;;31.59;33.09;101262.78;15831049;28;20040;-59
2021/07/11 10:20:57;;;;;;;1999.90;999.90;;;;;;;31.54;34.96;101254.69;15843967;28;20519;-61
2021/07/11 10:28:31;;;;;;;1999.90;999.90;;;;;;;32.55;32.61;101253.44;15862641;28;20047;-62
2021/07/11 10:36:17;;;;;;;1999.90;999.90;;;;;;;32.16;31.58;101249.16;15857761;28;20040;-60
2021/07/11 10:44:02;;;;;;;1999.90;999.90;;;;;;;32.58;30.95;101254.59;15844241;28;20496;-59
2021/07/11 10:51:42;;;;;;;1999.90;999.90;;;;;;;33.10;31.19;101245.03;15861818;28;20035;-61
2021/07/11 10:59:47;;;;;;;1999.90;999.90;;;;;;;33.54;28.65;101251.41;15862150;28;20437;-61
2021/07/11 11:07:21;;;;;;;1999.90;999.90;;;;;;;32.99;29.70;101238.91;15863123;28;20044;-59
2021/07/11 11:14:55;;;;;;;1999.90;999.90;;;;;;;33.98;29.88;101236.69;15846883;28;20512;-62
2021/07/11 11:22:29;;;;;;;1999.90;999.90;;;;;;;33.87;29.21;101239.25;15801472;28;20044;-62
2021/07/11 11:30:11;;;;;;;1999.90;999.90;;;;;;;33.69;28.38;101242.13;15866423;28;20449;-62
2021/07/11 11:37:49;;;;;;;1999.90;999.90;;;;;;;33.26;27.50;101235.28;15825161;28;20151;-59
2021/07/11 11:45:23;;;;;;;1999.90;999.90;;;;;;;33.18;26.76;101243.47;15867237;28;20385;-60
2021/07/11 11:53:09;;;;;;;1999.90;999.90;;;;;;;33.74;27.36;101232.78;15847243;28;20031;-62
2021/07/11 12:00:41;;;;;;;1999.90;999.90;;;;;;;33.89;29.02;101233.00;15840623;28;20056;-60
2021/07/11 12:08:15;;;;;;;1999.90;999.90;;;;;;;33.82;27.49;101223.31;15853444;28;20298;-62
2021/07/11 12:15:47;;;;;;;1999.90;999.90;;;;;;;33.57;28.16;101218.66;15854043;28;20059;-60
2021/07/11 12:23:23;;;;;;;1999.90;999.90;;;;;;;33.05;28.81;101213.88;15836113;28;20062;-61
2021/07/11 12:30:56;;;;;;;1999.90;999.90;;;;;;;34.47;28.63;101218.25;15832998;28;20054;-60
2021/07/11 12:38:31;;;;;;;1999.90;999.90;;;;;;;34.95;27.16;101210.50;15818411;28;20091;-62
2021/07/11 12:46:06;;;;;;;1999.90;999.90;;;;;;;36.82;26.71;101202.06;15862444;28;20044;-59
2021/07/11 12:53:39;;;;;;;1999.90;999.90;;;;;;;34.56;28.88;101191.34;15825138;28;20547;-62
2021/07/11 13:01:15;;;;;;;1999.90;999.90;;;;;;;34.48;28.83;101195.88;15786365;28;20040;-62
2021/07/11 13:08:48;;;;;;;1999.90;999.90;;;;;;;35.79;27.18;101191.22;15768312;28;20134;-63
2021/07/11 13:16:22;;;;;;;1999.90;999.90;;;;;;;33.13;30.79;101186.25;15786440;28;20047;-62
2021/07/11 13:23:55;;;;;;;1999.90;999.90;;;;;;;32.16;32.17;101177.00;15803564;28;20080;-63
2021/07/11 13:31:28;;;;;;;1999.90;999.90;;;;;;;31.81;32.16;101176.28;15803247;28;20089;-61
2021/07/11 13:39:02;;;;;;;1999.90;999.90;;;;;;;31.48;31.83;101168.00;15801418;28;20048;-61
2021/07/11 13:46:34;;;;;;;1999.90;999.90;;;;;;;31.29;32.64;101166.22;15802086;28;20047;-61
2021/07/11 13:54:08;;;;;;;1999.90;999.90;;;;;;;31.70;33.34;101156.47;15785894;28;20041;-59
2021/07/11 14:01:41;;;;;;;1999.90;999.90;;;;;;;31.74;33.77;101151.34;15737069;28;20032;-60
2021/07/11 14:09:14;;;;;;;1999.90;999.90;;;;;;;31.16;32.82;101139.44;15777722;28;20046;-61
2021/07/11 14:16:47;;;;;;;1999.90;999.90;;;;;;;30.74;33.83;101131.03;15787077;28;20048;-62
2021/07/11 14:24:21;;;;;;;1999.90;999.90;;;;;;;31.15;34.59;101124.25;15801439;28;20032;-62
2021/07/11 14:31:54;;;;;;;1999.90;999.90;;;;;;;30.86;33.18;101112.94;15803801;28;20370;-60
2021/07/11 14:39:28;;;;;;;1999.90;999.90;;;;;;;30.87;33.81;101102.22;15812650;28;20043;-61
2021/07/11 14:47:03;;;;;;;1999.90;999.90;;;;;;;30.93;33.78;101108.97;15793968;28;20401;-59
2021/07/11 14:54:36;;;;;;;1999.90;999.90;;;;;;;31.14;33.75;101101.66;15844570;28;20508;-59
2021/07/11 15:02:08;;;;;;;1999.90;999.90;;;;;;;31.07;33.40;101087.53;15875232;28;20096;-59
2021/07/11 15:09:43;;;;;;;1999.90;999.90;;;;;;;30.73;32.72;101092.78;15875003;28;20051;-59
2021/07/11 15:17:15;;;;;;;1999.90;999.90;;;;;;;30.75;34.64;101092.34;15875070;28;20043;-59
2021/07/11 15:24:50;;;;;;;1999.90;999.90;;;;;;;30.51;35.32;101080.34;15849318;28;20047;-60
2021/07/11 15:32:23;;;;;;;1999.90;999.90;;;;;;;30.49;35.89;101076.31;15810925;28;20040;-60
2021/07/11 15:39:57;;;;;;;1999.90;999.90;;;;;;;30.28;34.64;101078.63;15809519;28;20057;-61
2021/07/11 15:47:30;;;;;;;1999.90;999.90;;;;;;;30.20;33.96;101090.84;15810320;28;20463;-59
2021/07/11 15:55:05;;;;;;;1999.90;999.90;;;;;;;30.44;35.27;101083.47;15774793;28;20049;-60
2021/07/11 16:02:38;;;;;;;1999.90;999.90;;;;;;;29.81;35.37;101076.41;15733669;28;20439;-59
2021/07/11 16:10:12;;;;;;;1999.90;999.90;;;;;;;29.64;35.30;101063.38;15807067;28;20044;-58
2021/07/11 16:17:45;;;;;;;1999.90;999.90;;;;;;;29.64;35.96;101069.13;15806510;28;20068;-59
2021/07/11 16:25:20;;;;;;;1999.90;999.90;;;;;;;29.61;36.21;101067.16;15784387;28;20040;-59
2021/07/11 16:32:52;;;;;;;1999.90;999.90;;;;;;;29.51;36.38;101057.59;15788627;28;20520;-58
2021/07/11 16:40:26;;;;;;;1999.90;999.90;;;;;;;29.67;36.74;101053.00;15806231;28;20403;-60
2021/07/11 16:47:58;;;;;;;1999.90;999.90;;;;;;;29.69;37.22;101042.66;15780027;28;20048;-60
2021/07/11 16:55:32;;;;;;;1999.90;999.90;;;;;;;29.76;36.49;101041.66;15841994;28;20040;-61
2021/07/11 17:03:04;;;;;;;1999.90;999.90;;;;;;;29.64;35.60;101031.75;15858793;28;20048;-61
2021/07/11 17:10:37;;;;;;;1999.90;999.90;;;;;;;29.68;35.72;101038.19;15867970;28;20127;-60
2021/07/11 17:18:09;;;;;;;1999.90;999.90;;;;;;;29.33;35.76;101026.47;15867459;28;20045;-58
2021/07/11 17:25:43;;;;;;;1999.90;999.90;;;;;;;29.11;35.99;101031.22;15868269;28;20074;-61
2021/07/11 17:33:15;;;;;;;1999.90;999.90;;;;;;;29.10;36.33;101040.28;15867182;28;20096;-59
2021/07/11 17:40:49;;;;;;;1999.90;999.90;;;;;;;28.91;37.32;101062.16;15863300;28;20071;-61
2021/07/11 17:48:21;;;;;;;1999.90;999.90;;;;;;;28.68;38.05;101078.31;15838064;28;20048;-61
2021/07/11 17:55:55;;;;;;;1999.90;999.90;;;;;;;28.67;38.47;101082.44;15863653;28;20044;-59
2021/07/11 18:03:27;;;;;;;1999.90;999.90;;;;;;;28.38;39.33;101085.22;15844831;28;20404;-59
2021/07/11 18:11:01;;;;;;;;;;;;;;;28.28;40.03;101086.28;15844995;28;20107;-61
2021/07/11 18:18:33;;;;;;;1999.90;999.90;;;;;;;27.95;42.34;101090.31;15837360;28;19927;-60
2021/07/11 18:26:07;;;;;;;1999.90;999.90;;;;;;;27.98;43.09;101084.47;15850505;28;20039;-59
2021/07/11 18:33:39;;;;;;;1999.90;999.90;;;;;;;27.69;41.92;101074.91;15830133;28;20055;-61
2021/07/11 18:41:13;;;;;;;1999.90;999.90;;;;;;;27.61;42.86;101066.41;15845763;28;20039;-61
2021/07/11 18:48:45;;;;;;;1999.90;999.90;;;;;;;27.45;43.96;101074.97;15865455;28;20051;-60
2021/07/11 18:56:20;;;;;;;;;;;;;;;27.38;45.34;101065.69;15864106;28;20059;-60
2021/07/11 19:03:52;;;;;;;1999.90;999.90;;;;;;;27.28;45.59;101076.94;15844949;28;19919;-61
2021/07/11 19:11:26;;;;;;;1999.90;999.90;;;;;;;27.13;47.11;101067.00;15844937;28;20579;-60
2021/07/11 19:18:58;;;;;;;1999.90;999.90;;;;;;;26.88;48.26;101089.53;15869647;28;20346;-59
2021/07/11 19:26:33;;;;;;;1999.90;999.90;;;;;;;26.46;45.93;101077.56;15873666;28;20040;-61
2021/07/11 19:34:05;;;;;;;1999.90;999.90;;;;;;;26.51;47.04;101084.88;15873338;28;20051;-58
2021/07/11 19:41:38;;;;;;;1999.90;999.90;;;;;;;26.35;46.79;101089.16;15872386;28;20043;-59
2021/07/11 19:49:11;;;;;;;1999.90;999.90;;;;;;;26.28;47.82;101085.63;15854815;28;20036;-59
2021/07/11 19:56:45;;;;;;;1999.90;999.90;;;;;;;26.17;46.72;101094.38;15872201;28;20522;-60
2021/07/11 20:04:17;;;;;;;1999.90;999.90;;;;;;;26.02;48.39;101087.22;15873389;28;20078;-61
2021/07/11 20:11:51;;;;;;;;;;;;;;;25.84;47.03;101082.56;15871418;28;20047;-62
2021/07/11 20:19:24;;;;;;;1999.90;999.90;;;;;;;25.67;48.00;101075.03;15870961;28;19923;-61
2021/07/11 20:26:57;;;;;;;1999.90;999.90;;;;;;;25.77;48.37;101096.97;15869386;28;20047;-60
2021/07/11 20:34:30;;;;;;;1999.90;999.90;;;;;;;26.22;49.54;101098.78;15852585;28;20067;-60
2021/07/11 20:42:03;;;;;;;1999.90;999.90;;;;;;;25.62;51.94;101095.50;15851465;28;20050;-61
2021/07/11 20:49:35;;;;;;;1999.90;999.90;;;;;;;25.38;54.65;101093.75;15869195;28;20047;-61
2021/07/11 20:57:11;;;;;;;1999.90;999.90;;;;;;;25.42;55.18;101106.75;15799011;28;20476;-60
2021/07/11 21:04:43;;;;;;;1999.90;999.90;;;;;;;25.66;55.52;101098.31;15777431;28;20508;-60
2021/07/11 21:12:17;;;;;;;1999.90;999.90;;;;;;;25.25;57.16;101091.47;15783244;28;20080;-58
2021/07/11 21:19:49;;;;;;;1999.90;999.90;;;;;;;25.26;57.53;101080.84;15801529;28;20051;-58
2021/07/11 21:27:23;;;;;;;1999.90;999.90;;;;;;;24.83;59.56;101078.41;15802139;28;20072;-59
2021/07/11 21:34:55;;;;;;;1999.90;999.90;;;;;;;24.67;60.67;101058.16;15760720;28;20037;-59
2021/07/11 21:42:28;;;;;;;1999.90;999.90;;;;;;;24.50;61.51;101045.69;15765834;28;20040;-60
2021/07/11 21:50:01;;;;;;;1999.90;999.90;;;;;;;24.19;62.55;101036.97;15800308;28;20048;-59
2021/07/11 21:57:34;;;;;;;1999.90;999.90;;;;;;;24.07;63.82;101028.06;15821466;28;987271;-59
2021/07/11 22:05:08;;;;;;;1999.90;999.90;;;;;;;24.02;64.07;101043.59;15864774;28;20161;-57
2021/07/11 22:12:42;;;;;;;1999.90;999.90;;;;;;;23.27;66.13;101061.03;15865277;28;20050;-59
2021/07/11 22:20:17;;;;;;;1999.90;999.90;;;;;;;22.88;67.49;101066.00;15865272;28;20075;-60
2021/07/11 22:27:51;;;;;;;1999.90;999.90;;;;;;;23.30;66.37;101076.47;15847473;28;20059;-59
2021/07/11 22:35:27;;;;;;;1999.90;999.90;;;;;;;23.45;66.13;101069.53;15826018;28;20592;-60
2021/07/11 22:43:01;;;;;;;1999.90;999.90;;;;;;;23.49;66.26;101075.19;15858226;28;20447;-60
2021/07/11 22:50:34;;;;;;;1999.90;999.90;;;;;;;23.27;66.55;101088.69;15857349;28;20411;-60
2021/07/11 22:58:07;;;;;;;1999.90;999.90;;;;;;;23.30;66.68;101082.97;15875763;28;20106;-61
2021/07/11 23:05:39;;;;;;;1999.90;999.90;;;;;;;23.35;66.56;101078.91;15843673;28;20131;-61
2021/07/11 23:13:13;;;;;;;1999.90;999.90;;;;;;;23.16;67.24;101083.03;15860892;28;20086;-60
2021/07/11 23:20:45;;;;;;;1999.90;999.90;;;;;;;23.36;66.72;101079.72;15854998;28;20051;-60
2021/07/11 23:28:19;;;;;;;1999.90;999.90;;;;;;;23.40;67.12;101072.78;15873804;28;20048;-61
2021/07/11 23:35:53;;;;;;;1999.90;999.90;;;;;;;23.37;68.24;101059.38;15824767;28;20519;-61
2021/07/11 23:43:27;;;;;;;1999.90;999.90;;;;;;;23.32;68.30;101068.31;15852998;28;20206;-61
2021/07/11 23:50:59;;;;;;;1999.90;999.90;;;;;;;23.31;67.59;101058.97;15871244;28;20048;-62
2021/07/11 23:58:35;;;;;;;1999.90;999.90;;;;;;;23.21;67.82;101073.25;15871581;28;20047;-61
